CES7630 ZUXC-PHNL
Flight info
| Callsign | CES7630 |
|---|---|
| Flight time | N/A |
| Altitude | 35100 |
| Route | BOPTU W162 KAKMI W144 IGNAK W179 WFX B213 ESPEG V154 SNF W269 OLPOV B213 WHA R343 PK A593 AKARA/K0919F351 A593 LAMEN/N0496F351 A593 SADLI Y590 BEDAR Y591 FUE Y23 KASTE Y81 TASOT Y57 LIGNI Y816 IPROS Y830 LAPIL OTR13 SEALS DCT 34N153E DCT 34N159E DCT 33N166E DCT 31N173E DCT 29N179E DCT 27N174W DCT 25N168W DCT CANON DCT CANON |
| Aircraft | MD11/H-SDE1E2E3FGHIJ2J3J4J5M1RWXY/LB1D1 |
Departure
| Time | 2026-04-18 15:00 |
|---|---|
| Airport | Xichang Qingshan Airport (ZUXC) |
Arrival
| Time | N/A |
|---|---|
| Airport | Daniel K. Inouye International Airport (PHNL) |
| Time | Latitude | Longitude | Altitude | Speed | Heading |
|---|---|---|---|---|---|
| 2026-04-18 14:45 | 27.98292 | 102.18647 | 5075 ft | 1 kts | 88° |
| 2026-04-18 14:46 | 27.98292 | 102.18628 | 5075 ft | 4 kts | 90° |
| 2026-04-18 14:47 | 27.98292 | 102.18602 | 5071 ft | 4 kts | 82° |
| 2026-04-18 14:47 | 27.98288 | 102.18581 | 5072 ft | 4 kts | 36° |
| 2026-04-18 14:47 | 27.98274 | 102.18575 | 5073 ft | 4 kts | 342° |
| 2026-04-18 14:47 | 27.98249 | 102.18586 | 5075 ft | 4 kts | 341° |
| 2026-04-18 14:48 | 27.98226 | 102.18592 | 5074 ft | 2 kts | 359° |
| 2026-04-18 14:48 | 27.98224 | 102.18593 | 5074 ft | 1 kts | 360° |
| 2026-04-18 14:51 | 27.98239 | 102.18592 | 5074 ft | 4 kts | 359° |
| 2026-04-18 14:51 | 27.98265 | 102.18592 | 5074 ft | 3 kts | 359° |
| 2026-04-18 14:51 | 27.98290 | 102.18591 | 5074 ft | 4 kts | 359° |
| 2026-04-18 14:51 | 27.98320 | 102.18590 | 5074 ft | 5 kts | 358° |
| 2026-04-18 14:52 | 27.98355 | 102.18589 | 5077 ft | 5 kts | 358° |
| 2026-04-18 14:52 | 27.98394 | 102.18587 | 5077 ft | 6 kts | 358° |
| 2026-04-18 14:52 | 27.98438 | 102.18585 | 5077 ft | 7 kts | 358° |
| 2026-04-18 14:52 | 27.98485 | 102.18583 | 5077 ft | 7 kts | 358° |
| 2026-04-18 14:53 | 27.98536 | 102.18581 | 5077 ft | 8 kts | 358° |
| 2026-04-18 14:53 | 27.98589 | 102.18578 | 5077 ft | 8 kts | 358° |
| 2026-04-18 14:53 | 27.98644 | 102.18576 | 5077 ft | 8 kts | 358° |
| 2026-04-18 14:53 | 27.98699 | 102.18575 | 5077 ft | 8 kts | 359° |
| 2026-04-18 14:54 | 27.98758 | 102.18573 | 5077 ft | 9 kts | 358° |
| 2026-04-18 14:54 | 27.98828 | 102.18570 | 5077 ft | 11 kts | 358° |
| 2026-04-18 14:54 | 27.98908 | 102.18567 | 5077 ft | 12 kts | 358° |
| 2026-04-18 14:54 | 27.98999 | 102.18564 | 5077 ft | 14 kts | 358° |
| 2026-04-18 14:55 | 27.99097 | 102.18560 | 5075 ft | 15 kts | 358° |
| 2026-04-18 14:55 | 27.99202 | 102.18556 | 5075 ft | 16 kts | 358° |
| 2026-04-18 14:55 | 27.99315 | 102.18552 | 5075 ft | 15 kts | 358° |
| 2026-04-18 14:55 | 27.99420 | 102.18548 | 5075 ft | 16 kts | 358° |
| 2026-04-18 14:56 | 27.99518 | 102.18544 | 5077 ft | 13 kts | 358° |
| 2026-04-18 14:56 | 27.99615 | 102.18540 | 5077 ft | 15 kts | 358° |
| 2026-04-18 14:56 | 27.99721 | 102.18536 | 5077 ft | 16 kts | 358° |
| 2026-04-18 14:56 | 27.99837 | 102.18532 | 5077 ft | 17 kts | 358° |
| 2026-04-18 14:57 | 27.99961 | 102.18526 | 5075 ft | 18 kts | 358° |
| 2026-04-18 14:57 | 28.00090 | 102.18521 | 5075 ft | 19 kts | 358° |
| 2026-04-18 14:57 | 28.00226 | 102.18515 | 5082 ft | 19 kts | 358° |
| 2026-04-18 14:57 | 28.00353 | 102.18511 | 5083 ft | 19 kts | 358° |
| 2026-04-18 14:58 | 28.00445 | 102.18508 | 5082 ft | 11 kts | 358° |
| 2026-04-18 14:58 | 28.00492 | 102.18474 | 5083 ft | 7 kts | 288° |
| 2026-04-18 14:58 | 28.00497 | 102.18421 | 5084 ft | 7 kts | 271° |
| 2026-04-18 14:58 | 28.00482 | 102.18379 | 5085 ft | 4 kts | 217° |
| 2026-04-18 14:59 | 28.00450 | 102.18374 | 5084 ft | 8 kts | 183° |
| 2026-04-18 14:59 | 28.00127 | 102.18386 | 5079 ft | 85 kts | 178° |
| 2026-04-18 14:59 | 27.99293 | 102.18413 | 5078 ft | 152 kts | 179° |
| 2026-04-18 14:59 | 27.98084 | 102.18459 | 5081 ft | 196 kts | 179° |
| 2026-04-18 15:00 | 27.96663 | 102.18534 | 5409 ft | 203 kts | 178° |
| 2026-04-18 15:00 | 27.95275 | 102.18610 | 6027 ft | 204 kts | 179° |
| 2026-04-18 15:00 | 27.93855 | 102.18695 | 6685 ft | 202 kts | 178° |
| 2026-04-18 15:00 | 27.92453 | 102.18786 | 7295 ft | 204 kts | 178° |
| 2026-04-18 15:01 | 27.91052 | 102.18872 | 7773 ft | 202 kts | 179° |
| 2026-04-18 15:01 | 27.89651 | 102.18749 | 8272 ft | 201 kts | 194° |
| 2026-04-18 15:01 | 27.88258 | 102.18267 | 8499 ft | 219 kts | 199° |
| 2026-04-18 15:01 | 27.86757 | 102.17677 | 8653 ft | 234 kts | 194° |
| 2026-04-18 15:02 | 27.85149 | 102.17666 | 9096 ft | 234 kts | 163° |
| 2026-04-18 15:02 | 27.83772 | 102.18601 | 9656 ft | 235 kts | 135° |
| 2026-04-18 15:02 | 27.82755 | 102.20071 | 10072 ft | 238 kts | 128° |
| 2026-04-18 15:02 | 27.81808 | 102.21596 | 10544 ft | 238 kts | 128° |
| 2026-04-18 15:03 | 27.80854 | 102.23144 | 10913 ft | 242 kts | 123° |
| 2026-04-18 15:03 | 27.80080 | 102.24878 | 11124 ft | 255 kts | 112° |
| 2026-04-18 15:03 | 27.79687 | 102.26886 | 11251 ft | 270 kts | 96° |
| 2026-04-18 15:03 | 27.79885 | 102.29045 | 11381 ft | 285 kts | 76° |
| 2026-04-18 15:04 | 27.80639 | 102.31182 | 11511 ft | 303 kts | 66° |
| 2026-04-18 15:04 | 27.81627 | 102.33396 | 11646 ft | 328 kts | 64° |
| 2026-04-18 15:04 | 27.82720 | 102.35757 | 11786 ft | 351 kts | 64° |
| 2026-04-18 15:04 | 27.83886 | 102.38282 | 11918 ft | 374 kts | 64° |
| 2026-04-18 15:05 | 27.85103 | 102.40943 | 12342 ft | 385 kts | 64° |
| 2026-04-18 15:05 | 27.86335 | 102.43658 | 13036 ft | 391 kts | 64° |
| 2026-04-18 15:05 | 27.87579 | 102.46417 | 13718 ft | 396 kts | 64° |
| 2026-04-18 15:05 | 27.88830 | 102.49208 | 14370 ft | 400 kts | 64° |
| 2026-04-18 15:06 | 27.90096 | 102.52025 | 15041 ft | 404 kts | 64° |
| 2026-04-18 15:06 | 27.91377 | 102.54869 | 15653 ft | 408 kts | 64° |
| 2026-04-18 15:06 | 27.92670 | 102.57737 | 16310 ft | 411 kts | 64° |
| 2026-04-18 15:06 | 27.93970 | 102.60621 | 16968 ft | 413 kts | 64° |
| 2026-04-18 15:07 | 27.95284 | 102.63537 | 17556 ft | 418 kts | 64° |
| 2026-04-18 15:07 | 27.96610 | 102.66482 | 18175 ft | 422 kts | 64° |
| 2026-04-18 15:07 | 27.97946 | 102.69451 | 18725 ft | 425 kts | 64° |
| 2026-04-18 15:07 | 27.99292 | 102.72444 | 19268 ft | 429 kts | 64° |
| 2026-04-18 15:08 | 28.00650 | 102.75466 | 19780 ft | 432 kts | 64° |
| 2026-04-18 15:08 | 28.02016 | 102.78508 | 20334 ft | 434 kts | 64° |
| 2026-04-18 15:08 | 28.03387 | 102.81564 | 20898 ft | 437 kts | 64° |
| 2026-04-18 15:08 | 28.04748 | 102.84600 | 21403 ft | 440 kts | 64° |
| 2026-04-18 15:09 | 28.06137 | 102.87700 | 21948 ft | 443 kts | 64° |
| 2026-04-18 15:09 | 28.07534 | 102.90821 | 22467 ft | 446 kts | 64° |
| 2026-04-18 15:09 | 28.08941 | 102.93967 | 23000 ft | 450 kts | 64° |
| 2026-04-18 15:09 | 28.10358 | 102.97137 | 23486 ft | 453 kts | 64° |
| 2026-04-18 15:10 | 28.11786 | 103.00335 | 23915 ft | 456 kts | 64° |
| 2026-04-18 15:10 | 28.12754 | 103.02505 | 24194 ft | 458 kts | 64° |
| 2026-04-18 15:10 | 28.14196 | 103.05739 | 24625 ft | 461 kts | 64° |
| 2026-04-18 15:10 | 28.15648 | 103.08996 | 25059 ft | 464 kts | 63° |
| 2026-04-18 15:11 | 28.17580 | 103.13335 | 25602 ft | 468 kts | 63° |
| 2026-04-18 15:11 | 28.18553 | 103.15523 | 25837 ft | 471 kts | 63° |
| 2026-04-18 15:11 | 28.20031 | 103.18847 | 26248 ft | 473 kts | 63° |
| 2026-04-18 15:11 | 28.21515 | 103.22187 | 26660 ft | 476 kts | 63° |
| 2026-04-18 15:12 | 28.23515 | 103.26695 | 27179 ft | 480 kts | 63° |
| 2026-04-18 15:12 | 28.24508 | 103.28934 | 27414 ft | 482 kts | 63° |
| 2026-04-18 15:12 | 28.26013 | 103.32332 | 27804 ft | 484 kts | 63° |
| 2026-04-18 15:12 | 28.27525 | 103.35761 | 28176 ft | 487 kts | 63° |
| 2026-04-18 15:13 | 28.29038 | 103.39207 | 28576 ft | 489 kts | 63° |
| 2026-04-18 15:13 | 28.30562 | 103.42679 | 28887 ft | 494 kts | 62° |
| 2026-04-18 15:13 | 28.32098 | 103.46171 | 29253 ft | 496 kts | 62° |
| 2026-04-18 15:13 | 28.33644 | 103.49683 | 29599 ft | 499 kts | 62° |
| 2026-04-18 15:14 | 28.35198 | 103.53212 | 30078 ft | 499 kts | 61° |
| 2026-04-18 15:14 | 28.36750 | 103.56735 | 30494 ft | 499 kts | 61° |
| 2026-04-18 15:14 | 28.38300 | 103.60258 | 30917 ft | 499 kts | 61° |
| 2026-04-18 15:15 | 28.41397 | 103.67305 | 31645 ft | 499 kts | 62° |
| 2026-04-18 15:15 | 28.42946 | 103.70835 | 32026 ft | 499 kts | 61° |
| 2026-04-18 15:15 | 28.44493 | 103.74363 | 32391 ft | 500 kts | 61° |
| 2026-04-18 15:15 | 28.46041 | 103.77897 | 32791 ft | 500 kts | 61° |
| 2026-04-18 15:16 | 28.47591 | 103.81440 | 33164 ft | 500 kts | 61° |
| 2026-04-18 15:16 | 28.49138 | 103.84978 | 33550 ft | 500 kts | 61° |
| 2026-04-18 15:16 | 28.50689 | 103.88527 | 33820 ft | 502 kts | 61° |
| 2026-04-18 15:16 | 28.52240 | 103.92081 | 34081 ft | 502 kts | 61° |
| 2026-04-18 15:17 | 28.53792 | 103.95643 | 34290 ft | 503 kts | 60° |
| 2026-04-18 15:17 | 28.55346 | 103.99208 | 34519 ft | 504 kts | 60° |
| 2026-04-18 15:17 | 28.56900 | 104.02780 | 34772 ft | 504 kts | 60° |
| 2026-04-18 15:17 | 28.58450 | 104.06361 | 34935 ft | 506 kts | 60° |
| 2026-04-18 15:18 | 28.61560 | 104.13576 | 34987 ft | 506 kts | 60° |
| 2026-04-18 15:18 | 28.64996 | 104.20467 | 34986 ft | 496 kts | 49° |
| 2026-04-18 15:19 | 28.67266 | 104.23370 | 34969 ft | 487 kts | 37° |
| 2026-04-18 15:19 | 28.69931 | 104.25697 | 34971 ft | 479 kts | 26° |
| 2026-04-18 15:19 | 28.72828 | 104.27376 | 34964 ft | 470 kts | 15° |
| 2026-04-18 15:19 | 28.75966 | 104.28480 | 34963 ft | 463 kts | 6° |
| 2026-04-18 15:20 | 28.82238 | 104.28991 | 34965 ft | 451 kts | 352° |
| 2026-04-18 15:20 | 28.88479 | 104.28510 | 34958 ft | 449 kts | 351° |
| 2026-04-18 15:21 | 28.94719 | 104.28016 | 34954 ft | 450 kts | 351° |
| 2026-04-18 15:21 | 29.00954 | 104.27627 | 34951 ft | 442 kts | 352° |
| 2026-04-18 15:22 | 29.03951 | 104.27467 | 34945 ft | 419 kts | 352° |
| 2026-04-18 15:22 | 29.06797 | 104.27321 | 34958 ft | 402 kts | 352° |
| 2026-04-18 15:22 | 29.12307 | 104.27016 | 34951 ft | 395 kts | 351° |
| 2026-04-18 15:23 | 29.17799 | 104.26701 | 34953 ft | 395 kts | 351° |
| 2026-04-18 15:23 | 29.23297 | 104.26390 | 34953 ft | 395 kts | 351° |
| 2026-04-18 15:24 | 29.28815 | 104.26362 | 34957 ft | 401 kts | 359° |
| 2026-04-18 15:24 | 29.34368 | 104.27220 | 34977 ft | 404 kts | 2° |
| 2026-04-18 15:25 | 29.39927 | 104.28235 | 34960 ft | 405 kts | 2° |
| 2026-04-18 15:25 | 29.45496 | 104.29221 | 34958 ft | 405 kts | 2° |
| 2026-04-18 15:26 | 29.51064 | 104.30180 | 34964 ft | 405 kts | 2° |
| 2026-04-18 15:26 | 29.56640 | 104.31134 | 34963 ft | 405 kts | 2° |
| 2026-04-18 15:27 | 29.62210 | 104.32086 | 34982 ft | 405 kts | 1° |
| 2026-04-18 15:27 | 29.67737 | 104.33033 | 34964 ft | 404 kts | 1° |
| 2026-04-18 15:28 | 29.73325 | 104.33991 | 34965 ft | 404 kts | 1° |
| 2026-04-18 15:28 | 29.78844 | 104.34937 | 34972 ft | 403 kts | 1° |
| 2026-04-18 15:29 | 29.84397 | 104.35891 | 34970 ft | 404 kts | 1° |
| 2026-04-18 15:29 | 29.89950 | 104.36846 | 34978 ft | 403 kts | 1° |
| 2026-04-18 15:30 | 29.95478 | 104.37801 | 34970 ft | 400 kts | 1° |
| 2026-04-18 15:30 | 30.00986 | 104.38749 | 34974 ft | 400 kts | 1° |
| 2026-04-18 15:31 | 30.06495 | 104.39698 | 34972 ft | 400 kts | 1° |
| 2026-04-18 15:31 | 30.12009 | 104.40653 | 34971 ft | 401 kts | 1° |
| 2026-04-18 15:32 | 30.17522 | 104.41616 | 34998 ft | 401 kts | 1° |
| 2026-04-18 15:32 | 30.23020 | 104.42580 | 34976 ft | 399 kts | 1° |
| 2026-04-18 15:33 | 30.28514 | 104.43543 | 34984 ft | 399 kts | 1° |
| 2026-04-18 15:33 | 30.34007 | 104.44505 | 34984 ft | 399 kts | 1° |
| 2026-04-18 15:34 | 30.39502 | 104.45470 | 34983 ft | 399 kts | 1° |
| 2026-04-18 15:34 | 30.44999 | 104.46436 | 34983 ft | 399 kts | 1° |
| 2026-04-18 15:35 | 30.50488 | 104.47563 | 34981 ft | 404 kts | 7° |
| 2026-04-18 15:35 | 30.55786 | 104.50034 | 34979 ft | 420 kts | 24° |
| 2026-04-18 15:36 | 30.60371 | 104.54412 | 34977 ft | 437 kts | 42° |
| 2026-04-18 15:36 | 30.63711 | 104.60416 | 34976 ft | 452 kts | 62° |
| 2026-04-18 15:37 | 30.65711 | 104.67342 | 34972 ft | 458 kts | 70° |
| 2026-04-18 15:37 | 30.67384 | 104.74485 | 34986 ft | 459 kts | 70° |
| 2026-04-18 15:38 | 30.69117 | 104.81608 | 34975 ft | 458 kts | 69° |
| 2026-04-18 15:38 | 30.70909 | 104.88707 | 34974 ft | 457 kts | 69° |
| 2026-04-18 15:39 | 30.72713 | 104.95794 | 34972 ft | 457 kts | 69° |
| 2026-04-18 15:39 | 30.74511 | 105.02872 | 34974 ft | 456 kts | 69° |
| 2026-04-18 15:40 | 30.76302 | 105.09947 | 34970 ft | 456 kts | 69° |
| 2026-04-18 15:40 | 30.78088 | 105.17026 | 34971 ft | 456 kts | 69° |
| 2026-04-18 15:41 | 30.79871 | 105.24111 | 34968 ft | 456 kts | 69° |
| 2026-04-18 15:41 | 30.81648 | 105.31195 | 34979 ft | 456 kts | 69° |
| 2026-04-18 15:42 | 30.83418 | 105.38273 | 34967 ft | 455 kts | 69° |
| 2026-04-18 15:42 | 30.85085 | 105.45384 | 34966 ft | 457 kts | 71° |
| 2026-04-18 15:43 | 30.86599 | 105.52562 | 34968 ft | 456 kts | 72° |
| 2026-04-18 15:43 | 30.88098 | 105.59727 | 34961 ft | 455 kts | 72° |
| 2026-04-18 15:44 | 30.89608 | 105.66894 | 34969 ft | 456 kts | 71° |
| 2026-04-18 15:44 | 30.91120 | 105.74059 | 34975 ft | 455 kts | 71° |
| 2026-04-18 15:45 | 30.92629 | 105.81220 | 34957 ft | 455 kts | 71° |
| 2026-04-18 15:45 | 30.94135 | 105.88389 | 34956 ft | 456 kts | 71° |
| 2026-04-18 15:46 | 30.95626 | 105.95511 | 34957 ft | 456 kts | 71° |
| 2026-04-18 15:46 | 30.96959 | 106.02744 | 34965 ft | 459 kts | 78° |
| 2026-04-18 15:47 | 30.97517 | 106.10187 | 34964 ft | 462 kts | 83° |
| 2026-04-18 15:47 | 30.97873 | 106.17665 | 34969 ft | 462 kts | 83° |
| 2026-04-18 15:48 | 30.98263 | 106.25136 | 34968 ft | 461 kts | 82° |
| 2026-04-18 15:48 | 30.98688 | 106.32607 | 34966 ft | 462 kts | 82° |
| 2026-04-18 15:49 | 30.99117 | 106.40077 | 34966 ft | 462 kts | 82° |
| 2026-04-18 15:49 | 30.99542 | 106.47548 | 34966 ft | 462 kts | 82° |
| 2026-04-18 15:50 | 30.99962 | 106.55017 | 34977 ft | 462 kts | 82° |
| 2026-04-18 15:50 | 31.00376 | 106.62474 | 34964 ft | 461 kts | 82° |
| 2026-04-18 15:51 | 31.00786 | 106.69935 | 34981 ft | 461 kts | 82° |
| 2026-04-18 15:51 | 31.01191 | 106.77387 | 34971 ft | 459 kts | 82° |
| 2026-04-18 15:52 | 31.01590 | 106.84813 | 34972 ft | 459 kts | 82° |
| 2026-04-18 15:52 | 31.01986 | 106.92241 | 34975 ft | 459 kts | 82° |
| 2026-04-18 15:53 | 31.02371 | 106.99675 | 34974 ft | 459 kts | 82° |
| 2026-04-18 15:53 | 31.02735 | 107.07112 | 34985 ft | 459 kts | 82° |
| 2026-04-18 15:54 | 31.03105 | 107.14527 | 34980 ft | 458 kts | 82° |
| 2026-04-18 15:54 | 31.03481 | 107.21936 | 34973 ft | 458 kts | 81° |
| 2026-04-18 15:55 | 31.03853 | 107.29349 | 34987 ft | 458 kts | 82° |
| 2026-04-18 15:55 | 31.04223 | 107.36757 | 34986 ft | 457 kts | 82° |
| 2026-04-18 15:56 | 31.04566 | 107.44121 | 34992 ft | 458 kts | 82° |
| 2026-04-18 15:56 | 31.04805 | 107.51524 | 34996 ft | 457 kts | 83° |
| 2026-04-18 15:57 | 31.04966 | 107.58930 | 34997 ft | 457 kts | 83° |
| 2026-04-18 15:57 | 31.05108 | 107.66343 | 35002 ft | 457 kts | 83° |
| 2026-04-18 15:58 | 31.05248 | 107.73752 | 35002 ft | 458 kts | 83° |
| 2026-04-18 15:58 | 31.05386 | 107.81165 | 35004 ft | 455 kts | 83° |
| 2026-04-18 15:59 | 31.05500 | 107.87299 | 35009 ft | 455 kts | 83° |
| 2026-04-18 15:59 | 31.05636 | 107.94678 | 35007 ft | 456 kts | 83° |
| 2026-04-18 16:00 | 31.05788 | 108.03318 | 35029 ft | 456 kts | 83° |
| 2026-04-18 16:00 | 31.05894 | 108.09477 | 35018 ft | 459 kts | 83° |
| 2026-04-18 16:01 | 31.06016 | 108.16912 | 35010 ft | 458 kts | 83° |
| 2026-04-18 16:01 | 31.06134 | 108.24347 | 35011 ft | 459 kts | 83° |
| 2026-04-18 16:02 | 31.06247 | 108.31776 | 35010 ft | 458 kts | 82° |
| 2026-04-18 16:02 | 31.06357 | 108.39215 | 35012 ft | 459 kts | 83° |
| 2026-04-18 16:03 | 31.06462 | 108.46653 | 35017 ft | 459 kts | 83° |
| 2026-04-18 16:03 | 31.06564 | 108.54097 | 35023 ft | 460 kts | 83° |
| 2026-04-18 16:04 | 31.06661 | 108.61564 | 35018 ft | 460 kts | 83° |
| 2026-04-18 16:04 | 31.06737 | 108.69028 | 35018 ft | 460 kts | 83° |
| 2026-04-18 16:05 | 31.06806 | 108.76492 | 35022 ft | 460 kts | 83° |
| 2026-04-18 16:05 | 31.06884 | 108.83944 | 35028 ft | 459 kts | 83° |
| 2026-04-18 16:06 | 31.06964 | 108.91397 | 35040 ft | 461 kts | 83° |
| 2026-04-18 16:06 | 31.07040 | 108.98835 | 35048 ft | 457 kts | 83° |
| 2026-04-18 16:07 | 31.07111 | 109.06275 | 35052 ft | 459 kts | 83° |
| 2026-04-18 16:07 | 31.07179 | 109.13729 | 35064 ft | 460 kts | 82° |
| 2026-04-18 16:08 | 31.07240 | 109.21175 | 35058 ft | 459 kts | 82° |
| 2026-04-18 16:08 | 31.07298 | 109.28610 | 35063 ft | 458 kts | 83° |
| 2026-04-18 16:09 | 31.07353 | 109.36043 | 35054 ft | 458 kts | 82° |
| 2026-04-18 16:09 | 31.07403 | 109.43482 | 35057 ft | 459 kts | 83° |
| 2026-04-18 16:10 | 31.07447 | 109.50863 | 35056 ft | 458 kts | 82° |
| 2026-04-18 16:10 | 31.07488 | 109.58292 | 35052 ft | 458 kts | 82° |
| 2026-04-18 16:11 | 31.07509 | 109.65727 | 35053 ft | 458 kts | 83° |
| 2026-04-18 16:11 | 31.06907 | 109.73182 | 35044 ft | 468 kts | 98° |
| 2026-04-18 16:12 | 31.04955 | 109.80415 | 35087 ft | 469 kts | 104° |
| 2026-04-18 16:12 | 31.02757 | 109.87685 | 35065 ft | 480 kts | 104° |
| 2026-04-18 16:13 | 31.00619 | 109.95028 | 35099 ft | 476 kts | 103° |
| 2026-04-18 16:13 | 30.98549 | 110.02335 | 35079 ft | 474 kts | 103° |
| 2026-04-18 16:14 | 30.96494 | 110.09640 | 35079 ft | 475 kts | 103° |
| 2026-04-18 16:14 | 30.94431 | 110.16940 | 35096 ft | 474 kts | 104° |
| 2026-04-18 16:15 | 30.91329 | 110.27872 | 35092 ft | 475 kts | 103° |
| 2026-04-18 16:16 | 30.89253 | 110.35163 | 35094 ft | 473 kts | 103° |
| 2026-04-18 16:16 | 30.87177 | 110.42435 | 35086 ft | 472 kts | 103° |
| 2026-04-18 16:17 | 30.85099 | 110.49697 | 35088 ft | 472 kts | 104° |
| 2026-04-18 16:17 | 30.83043 | 110.56865 | 35085 ft | 469 kts | 104° |
| 2026-04-18 16:18 | 30.80974 | 110.64055 | 35088 ft | 469 kts | 104° |
| 2026-04-18 16:18 | 30.78874 | 110.71266 | 35086 ft | 471 kts | 104° |
| 2026-04-18 16:19 | 30.76782 | 110.78463 | 35086 ft | 469 kts | 104° |
| 2026-04-18 16:19 | 30.74701 | 110.85644 | 35078 ft | 468 kts | 104° |
| 2026-04-18 16:20 | 30.72622 | 110.92811 | 35090 ft | 467 kts | 104° |
| 2026-04-18 16:20 | 30.70542 | 110.99969 | 35074 ft | 468 kts | 104° |
| 2026-04-18 16:21 | 30.68453 | 111.07133 | 35065 ft | 468 kts | 105° |
| 2026-04-18 16:21 | 30.66361 | 111.14290 | 35067 ft | 468 kts | 105° |
| 2026-04-18 16:22 | 30.64269 | 111.21435 | 35050 ft | 466 kts | 105° |
| 2026-04-18 16:22 | 30.62722 | 111.28659 | 35041 ft | 455 kts | 86° |
| 2026-04-18 16:23 | 30.63301 | 111.35840 | 35047 ft | 445 kts | 73° |
| 2026-04-18 16:23 | 30.64989 | 111.46444 | 35037 ft | 446 kts | 75° |
| 2026-04-18 16:24 | 30.65628 | 111.53655 | 35041 ft | 451 kts | 80° |
| 2026-04-18 16:24 | 30.65981 | 111.60930 | 35042 ft | 452 kts | 81° |
| 2026-04-18 16:25 | 30.66317 | 111.68215 | 35039 ft | 451 kts | 81° |
| 2026-04-18 16:25 | 30.66675 | 111.75495 | 35038 ft | 451 kts | 81° |
| 2026-04-18 16:26 | 30.67044 | 111.82769 | 35043 ft | 451 kts | 81° |
| 2026-04-18 16:26 | 30.67408 | 111.90004 | 35038 ft | 448 kts | 81° |
| 2026-04-18 16:27 | 30.67786 | 111.97174 | 35038 ft | 447 kts | 79° |
| 2026-04-18 16:27 | 30.68261 | 112.04372 | 35051 ft | 446 kts | 79° |
| 2026-04-18 16:28 | 30.68760 | 112.11524 | 35042 ft | 444 kts | 79° |
| 2026-04-18 16:28 | 30.69255 | 112.18673 | 35043 ft | 444 kts | 79° |
| 2026-04-18 16:29 | 30.69742 | 112.25828 | 35034 ft | 444 kts | 79° |
| 2026-04-18 16:29 | 30.70223 | 112.32985 | 35038 ft | 444 kts | 79° |
| 2026-04-18 16:30 | 30.70700 | 112.40145 | 35043 ft | 444 kts | 79° |
| 2026-04-18 16:30 | 30.71173 | 112.47302 | 35044 ft | 445 kts | 79° |
| 2026-04-18 16:31 | 30.71644 | 112.54477 | 35036 ft | 445 kts | 80° |
| 2026-04-18 16:31 | 30.72110 | 112.61648 | 35034 ft | 445 kts | 80° |
| 2026-04-18 16:32 | 30.72572 | 112.68828 | 35038 ft | 445 kts | 80° |
| 2026-04-18 16:32 | 30.73031 | 112.76002 | 35043 ft | 445 kts | 80° |
| 2026-04-18 16:33 | 30.73486 | 112.83183 | 35045 ft | 447 kts | 80° |
| 2026-04-18 16:33 | 30.73939 | 112.90392 | 35036 ft | 447 kts | 80° |
| 2026-04-18 16:34 | 30.74367 | 112.97605 | 35043 ft | 447 kts | 81° |
| 2026-04-18 16:34 | 30.74794 | 113.04811 | 35042 ft | 447 kts | 81° |
| 2026-04-18 16:35 | 30.75228 | 113.12015 | 35053 ft | 446 kts | 81° |
| 2026-04-18 16:35 | 30.75522 | 113.19238 | 35039 ft | 448 kts | 83° |
| 2026-04-18 16:36 | 30.75703 | 113.26486 | 35038 ft | 449 kts | 83° |
| 2026-04-18 16:36 | 30.75877 | 113.33734 | 35037 ft | 449 kts | 83° |
| 2026-04-18 16:37 | 30.76058 | 113.40980 | 35034 ft | 448 kts | 83° |
| 2026-04-18 16:37 | 30.76239 | 113.48234 | 35035 ft | 449 kts | 83° |
| 2026-04-18 16:38 | 30.76399 | 113.54714 | 35036 ft | 450 kts | 83° |
| 2026-04-18 16:38 | 30.76572 | 113.61984 | 35035 ft | 450 kts | 83° |
| 2026-04-18 16:39 | 30.76741 | 113.69203 | 35033 ft | 450 kts | 83° |
| 2026-04-18 16:39 | 30.76907 | 113.76471 | 35034 ft | 450 kts | 84° |
| 2026-04-18 16:40 | 30.77070 | 113.83756 | 35032 ft | 452 kts | 84° |
| 2026-04-18 16:40 | 30.77228 | 113.91058 | 35034 ft | 451 kts | 84° |
| 2026-04-18 16:41 | 30.77471 | 114.02000 | 35036 ft | 451 kts | 83° |
| 2026-04-18 16:42 | 30.77729 | 114.09280 | 35043 ft | 451 kts | 83° |
| 2026-04-18 16:42 | 30.78031 | 114.16579 | 35039 ft | 452 kts | 83° |
| 2026-04-18 16:43 | 30.79107 | 114.23666 | 35053 ft | 440 kts | 65° |
| 2026-04-18 16:43 | 30.81284 | 114.30263 | 35039 ft | 436 kts | 62° |
| 2026-04-18 16:44 | 30.83541 | 114.36809 | 35037 ft | 436 kts | 62° |
| 2026-04-18 16:44 | 30.85725 | 114.43416 | 35036 ft | 439 kts | 63° |
| 2026-04-18 16:45 | 30.87889 | 114.50083 | 35033 ft | 440 kts | 63° |
| 2026-04-18 16:45 | 30.90049 | 114.56743 | 35033 ft | 440 kts | 63° |
| 2026-04-18 16:46 | 30.92212 | 114.63408 | 35038 ft | 440 kts | 63° |
| 2026-04-18 16:46 | 30.94371 | 114.70074 | 35040 ft | 440 kts | 63° |
| 2026-04-18 16:47 | 30.96520 | 114.76723 | 35044 ft | 438 kts | 63° |
| 2026-04-18 16:47 | 30.98663 | 114.83362 | 35043 ft | 437 kts | 63° |
| 2026-04-18 16:48 | 31.00800 | 114.89999 | 35040 ft | 438 kts | 63° |
| 2026-04-18 16:48 | 31.02928 | 114.96645 | 35040 ft | 437 kts | 63° |
| 2026-04-18 16:49 | 31.05048 | 115.03289 | 35047 ft | 438 kts | 64° |
| 2026-04-18 16:49 | 31.07166 | 115.09919 | 35043 ft | 439 kts | 64° |
| 2026-04-18 16:50 | 31.09300 | 115.16607 | 35057 ft | 440 kts | 64° |
| 2026-04-18 16:50 | 31.11424 | 115.23295 | 35050 ft | 438 kts | 64° |
| 2026-04-18 16:51 | 31.13530 | 115.29946 | 35064 ft | 436 kts | 63° |
| 2026-04-18 16:51 | 31.15675 | 115.36577 | 35062 ft | 437 kts | 63° |
| 2026-04-18 16:52 | 31.17835 | 115.43227 | 35072 ft | 438 kts | 63° |
| 2026-04-18 16:52 | 31.19990 | 115.49884 | 35068 ft | 438 kts | 63° |
| 2026-04-18 16:53 | 31.22140 | 115.56545 | 35077 ft | 438 kts | 63° |
| 2026-04-18 16:53 | 31.24287 | 115.63211 | 35075 ft | 438 kts | 63° |
| 2026-04-18 16:54 | 31.26434 | 115.69887 | 35085 ft | 440 kts | 64° |
| 2026-04-18 16:54 | 31.28580 | 115.76576 | 35080 ft | 439 kts | 64° |
| 2026-04-18 16:55 | 31.30713 | 115.83280 | 35090 ft | 441 kts | 64° |
| 2026-04-18 16:55 | 31.32839 | 115.89936 | 35091 ft | 439 kts | 64° |
| 2026-04-18 16:56 | 31.35028 | 115.96659 | 35089 ft | 439 kts | 64° |
| 2026-04-18 16:56 | 31.37218 | 116.03359 | 35088 ft | 442 kts | 64° |
| 2026-04-18 16:57 | 31.39404 | 116.10069 | 35083 ft | 441 kts | 64° |